Como, Texas
Current Conditions -  °F | °C
As of 11:15 AM on Saturday 25 Oct 2014 (Local Time) from KSLR Reporting Station
Clear Clear  
Wind Chill: 78°   Ceiling: Unl
Heat Index: 79°   Visibility: 10mi
Dew Point: 59°   Wind: 13mph
Humidity: 52%   Direction: 210°SSW
Pressure: 30.17"   Gusts: NA
Location:  33.06°N, 95.47°W
Report Text: KSLR 251615Z AUTO 21011KT 10SM CLR 25/15 A3017 RMK AO2 T02540150
Loading
Personal Weather Stations






























Interactive Weather Map
Tropical Storm Tracking
New forecast layout! Learn more

10-Day Weather Forecast

Advertisements
Track Severe Weather on mobile